sensor_id;sensor_type;location;lat;lon;timestamp;pressure;altitude;pressure_sealevel;temperature
53512;BMP280;39392;52.832;13.816;2023-03-15T00:01:32;100427.31;;;17.77
53512;BMP280;39392;52.832;13.816;2023-03-15T00:03:59;100428.31;;;17.76
53512;BMP280;39392;52.832;13.816;2023-03-15T00:06:26;100438.16;;;17.77
53512;BMP280;39392;52.832;13.816;2023-03-15T00:08:52;100447.28;;;17.76
53512;BMP280;39392;52.832;13.816;2023-03-15T00:11:19;100449.31;;;17.74
53512;BMP280;39392;52.832;13.816;2023-03-15T00:13:45;100443.88;;;17.74
53512;BMP280;39392;52.832;13.816;2023-03-15T00:16:12;100453.03;;;17.73
53512;BMP280;39392;52.832;13.816;2023-03-15T00:18:43;100454.22;;;17.70
53512;BMP280;39392;52.832;13.816;2023-03-15T00:21:10;100452.69;;;17.67
53512;BMP280;39392;52.832;13.816;2023-03-15T00:23:36;100461.69;;;17.68
53512;BMP280;39392;52.832;13.816;2023-03-15T00:26:03;100466.25;;;17.67
53512;BMP280;39392;52.832;13.816;2023-03-15T00:28:29;100472.69;;;17.66
53512;BMP280;39392;52.832;13.816;2023-03-15T00:31:15;100480.84;;;17.66
53512;BMP280;39392;52.832;13.816;2023-03-15T00:33:42;100476.44;;;17.65
53512;BMP280;39392;52.832;13.816;2023-03-15T00:36:09;100489.31;;;17.63
53512;BMP280;39392;52.832;13.816;2023-03-15T00:38:37;100491.16;;;17.63
53512;BMP280;39392;52.832;13.816;2023-03-15T00:41:04;100492.19;;;17.62
53512;BMP280;39392;52.832;13.816;2023-03-15T00:43:31;100498.63;;;17.61
53512;BMP280;39392;52.832;13.816;2023-03-15T00:45:57;100494.25;;;17.60
53512;BMP280;39392;52.832;13.816;2023-03-15T00:48:24;100494.41;;;17.58
53512;BMP280;39392;52.832;13.816;2023-03-15T00:50:50;100502.72;;;17.57
53512;BMP280;39392;52.832;13.816;2023-03-15T00:53:16;100509.16;;;17.56
53512;BMP280;39392;52.832;13.816;2023-03-15T00:55:43;100512.03;;;17.54
53512;BMP280;39392;52.832;13.816;2023-03-15T00:58:09;100516.59;;;17.54
53512;BMP280;39392;52.832;13.816;2023-03-15T01:00:36;100514.06;;;17.52
53512;BMP280;39392;52.832;13.816;2023-03-15T01:03:03;100523.69;;;17.55
53512;BMP280;39392;52.832;13.816;2023-03-15T01:05:29;100522.03;;;17.54
53512;BMP280;39392;52.832;13.816;2023-03-15T01:07:56;100524.72;;;17.54
53512;BMP280;39392;52.832;13.816;2023-03-15T01:10:22;100522.84;;;17.54
53512;BMP280;39392;52.832;13.816;2023-03-15T01:12:52;100523.88;;;17.53
53512;BMP280;39392;52.832;13.816;2023-03-15T01:15:22;100529.50;;;17.52
53512;BMP280;39392;52.832;13.816;2023-03-15T01:17:49;100529.50;;;17.52
53512;BMP280;39392;52.832;13.816;2023-03-15T01:20:15;100537.63;;;17.52
53512;BMP280;39392;52.832;13.816;2023-03-15T01:22:42;100538.78;;;17.49
53512;BMP280;39392;52.832;13.816;2023-03-15T01:25:08;100540.66;;;17.49
53512;BMP280;39392;52.832;13.816;2023-03-15T01:27:35;100553.38;;;17.48
53512;BMP280;39392;52.832;13.816;2023-03-15T01:30:01;100555.38;;;17.46
53512;BMP280;39392;52.832;13.816;2023-03-15T01:32:27;100563.50;;;17.46
53512;BMP280;39392;52.832;13.816;2023-03-15T01:34:55;100567.06;;;17.47
53512;BMP280;39392;52.832;13.816;2023-03-15T01:37:22;100567.25;;;17.45
53512;BMP280;39392;52.832;13.816;2023-03-15T01:39:50;100567.25;;;17.45
53512;BMP280;39392;52.832;13.816;2023-03-15T01:42:16;100568.09;;;17.46
53512;BMP280;39392;52.832;13.816;2023-03-15T01:44:50;100568.41;;;17.42
53512;BMP280;39392;52.832;13.816;2023-03-15T01:47:17;100574.03;;;17.41
53512;BMP280;39392;52.832;13.816;2023-03-15T01:49:45;100575.03;;;17.40
53512;BMP280;39392;52.832;13.816;2023-03-15T01:52:14;100585.19;;;17.38
53512;BMP280;39392;52.832;13.816;2023-03-15T01:54:44;100575.38;;;17.37
53512;BMP280;39392;52.832;13.816;2023-03-15T01:57:14;100585.19;;;17.38
53512;BMP280;39392;52.832;13.816;2023-03-15T01:59:45;100589.75;;;17.37
53512;BMP280;39392;52.832;13.816;2023-03-15T02:02:15;100585.38;;;17.36
53512;BMP280;39392;52.832;13.816;2023-03-15T02:04:43;100586.22;;;17.37
53512;BMP280;39392;52.832;13.816;2023-03-15T02:07:13;100595.34;;;17.36
53512;BMP280;39392;52.832;13.816;2023-03-15T02:12:09;100600.94;;;17.34
53512;BMP280;39392;52.832;13.816;2023-03-15T02:14:36;100606.34;;;17.34
53512;BMP280;39392;52.832;13.816;2023-03-15T02:17:03;100603.81;;;17.33
53512;BMP280;39392;52.832;13.816;2023-03-15T02:19:35;100598.41;;;17.33
53512;BMP280;39392;52.832;13.816;2023-03-15T02:22:13;100615.50;;;17.33
53512;BMP280;39392;52.832;13.816;2023-03-15T02:24:51;100611.09;;;17.32
53512;BMP280;39392;52.832;13.816;2023-03-15T02:27:27;100604.00;;;17.31
53512;BMP280;39392;52.832;13.816;2023-03-15T02:29:55;100614.00;;;17.31
53512;BMP280;39392;52.832;13.816;2023-03-15T02:32:22;100622.13;;;17.31
53512;BMP280;39392;52.832;13.816;2023-03-15T02:34:48;100628.38;;;17.31
53512;BMP280;39392;52.832;13.816;2023-03-15T02:37:15;100624.13;;;17.29
53512;BMP280;39392;52.832;13.816;2023-03-15T02:39:41;100631.22;;;17.30
53512;BMP280;39392;52.832;13.816;2023-03-15T02:42:08;100624.97;;;17.29
53512;BMP280;39392;52.832;13.816;2023-03-15T02:44:35;100625.81;;;17.30
53512;BMP280;39392;52.832;13.816;2023-03-15T02:47:03;100631.22;;;17.30
53512;BMP280;39392;52.832;13.816;2023-03-15T02:49:31;100633.78;;;17.31
53512;BMP280;39392;52.832;13.816;2023-03-15T02:52:00;100635.66;;;17.31
53512;BMP280;39392;52.832;13.816;2023-03-15T02:54:26;100648.19;;;17.32
53512;BMP280;39392;52.832;13.816;2023-03-15T02:56:53;100650.03;;;17.31
53512;BMP280;39392;52.832;13.816;2023-03-15T02:59:19;100653.59;;;17.32
53512;BMP280;39392;52.832;13.816;2023-03-15T03:01:46;100653.75;;;17.30
53512;BMP280;39392;52.832;13.816;2023-03-15T03:04:12;100657.31;;;17.31
53512;BMP280;39392;52.832;13.816;2023-03-15T03:06:38;100660.19;;;17.29
53512;BMP280;39392;52.832;13.816;2023-03-15T03:09:05;100669.16;;;17.30
53512;BMP280;39392;52.832;13.816;2023-03-15T03:11:31;100663.91;;;17.28
53512;BMP280;39392;52.832;13.816;2023-03-15T03:13:57;100663.91;;;17.28
53512;BMP280;39392;52.832;13.816;2023-03-15T03:16:24;100667.47;;;17.29
53512;BMP280;39392;52.832;13.816;2023-03-15T03:18:50;100684.75;;;17.28
53512;BMP280;39392;52.832;13.816;2023-03-15T03:21:17;100686.44;;;17.29
53512;BMP280;39392;52.832;13.816;2023-03-15T03:23:43;100692.03;;;17.27
53512;BMP280;39392;52.832;13.816;2023-03-15T03:26:15;100698.28;;;17.28
53512;BMP280;39392;52.832;13.816;2023-03-15T03:28:43;100708.28;;;17.27
53512;BMP280;39392;52.832;13.816;2023-03-15T03:31:20;100700.47;;;17.24
53512;BMP280;39392;52.832;13.816;2023-03-15T03:33:47;100707.56;;;17.25
53512;BMP280;39392;52.832;13.816;2023-03-15T03:36:14;100711.13;;;17.26
53512;BMP280;39392;52.832;13.816;2023-03-15T03:38:41;100712.84;;;17.27
53512;BMP280;39392;52.832;13.816;2023-03-15T03:41:08;100716.53;;;17.26
53512;BMP280;39392;52.832;13.816;2023-03-15T03:43:36;100715.56;;;17.27
53512;BMP280;39392;52.832;13.816;2023-03-15T03:46:02;100719.25;;;17.26
53512;BMP280;39392;52.832;13.816;2023-03-15T03:48:29;100721.81;;;17.27
53512;BMP280;39392;52.832;13.816;2023-03-15T03:50:56;100720.78;;;17.28
53512;BMP280;39392;52.832;13.816;2023-03-15T03:53:23;100738.06;;;17.27
53512;BMP280;39392;52.832;13.816;2023-03-15T03:55:50;100736.19;;;17.28
53512;BMP280;39392;52.832;13.816;2023-03-15T03:58:16;100731.81;;;17.27
53512;BMP280;39392;52.832;13.816;2023-03-15T04:00:43;100736.34;;;17.26
53512;BMP280;39392;52.832;13.816;2023-03-15T04:03:09;100734.50;;;17.27
53512;BMP280;39392;52.832;13.816;2023-03-15T04:05:35;100742.63;;;17.27
53512;BMP280;39392;52.832;13.816;2023-03-15T04:08:02;100751.75;;;17.26
53512;BMP280;39392;52.832;13.816;2023-03-15T04:10:28;100743.63;;;17.26
53512;BMP280;39392;52.832;13.816;2023-03-15T04:13:00;100751.75;;;17.26
53512;BMP280;39392;52.832;13.816;2023-03-15T04:15:26;100751.94;;;17.24
53512;BMP280;39392;52.832;13.816;2023-03-15T04:17:53;100761.75;;;17.25
53512;BMP280;39392;52.832;13.816;2023-03-15T04:20:25;100761.75;;;17.25
53512;BMP280;39392;52.832;13.816;2023-03-15T04:22:52;100765.47;;;17.24
53512;BMP280;39392;52.832;13.816;2023-03-15T04:25:20;100761.91;;;17.24
53512;BMP280;39392;52.832;13.816;2023-03-15T04:27:46;100771.91;;;17.23
53512;BMP280;39392;52.832;13.816;2023-03-15T04:30:24;100778.84;;;17.26
53512;BMP280;39392;52.832;13.816;2023-03-15T04:32:52;100777.31;;;17.23
53512;BMP280;39392;52.832;13.816;2023-03-15T04:35:25;100784.59;;;17.23
53512;BMP280;39392;52.832;13.816;2023-03-15T04:37:51;100780.03;;;17.23
53512;BMP280;39392;52.832;13.816;2023-03-15T04:40:18;100786.44;;;17.22
53512;BMP280;39392;52.832;13.816;2023-03-15T04:42:44;100796.44;;;17.22
53512;BMP280;39392;52.832;13.816;2023-03-15T04:45:11;100797.28;;;17.22
53512;BMP280;39392;52.832;13.816;2023-03-15T04:47:37;100786.78;;;17.19
53512;BMP280;39392;52.832;13.816;2023-03-15T04:50:04;100799.13;;;17.22
53512;BMP280;39392;52.832;13.816;2023-03-15T04:52:30;100792.22;;;17.19
53512;BMP280;39392;52.832;13.816;2023-03-15T04:54:57;100803.03;;;17.19
53512;BMP280;39392;52.832;13.816;2023-03-15T04:57:23;100799.00;;;17.23
53512;BMP280;39392;52.832;13.816;2023-03-15T04:59:49;100801.34;;;17.26
53512;BMP280;39392;52.832;13.816;2023-03-15T05:02:16;100812.88;;;17.28
53512;BMP280;39392;52.832;13.816;2023-03-15T05:04:42;100816.44;;;17.29
53512;BMP280;39392;52.832;13.816;2023-03-15T05:07:09;100817.28;;;17.29
53512;BMP280;39392;52.832;13.816;2023-03-15T05:09:35;100819.16;;;17.29
53512;BMP280;39392;52.832;13.816;2023-03-15T05:12:05;100827.28;;;17.29
53512;BMP280;39392;52.832;13.816;2023-03-15T05:14:31;100833.53;;;17.29
53512;BMP280;39392;52.832;13.816;2023-03-15T05:16:58;100824.75;;;17.27
53512;BMP280;39392;52.832;13.816;2023-03-15T05:19:25;100839.97;;;17.28
53512;BMP280;39392;52.832;13.816;2023-03-15T05:21:51;100837.44;;;17.27
53512;BMP280;39392;52.832;13.816;2023-03-15T05:24:20;100843.72;;;17.27
53512;BMP280;39392;52.832;13.816;2023-03-15T05:26:46;100836.56;;;17.26
53512;BMP280;39392;52.832;13.816;2023-03-15T05:29:13;100837.44;;;17.27
53512;BMP280;39392;52.832;13.816;2023-03-15T05:31:40;100852.81;;;17.26
53512;BMP280;39392;52.832;13.816;2023-03-15T05:34:06;100846.72;;;17.24
53512;BMP280;39392;52.832;13.816;2023-03-15T05:36:33;100854.84;;;17.24
53512;BMP280;39392;52.832;13.816;2023-03-15T05:38:59;100859.44;;;17.24
53512;BMP280;39392;52.832;13.816;2023-03-15T05:41:29;100866.84;;;17.22
53512;BMP280;39392;52.832;13.816;2023-03-15T05:43:55;100874.00;;;17.23
53512;BMP280;39392;52.832;13.816;2023-03-15T05:46:22;100874.97;;;17.22
53512;BMP280;39392;52.832;13.816;2023-03-15T05:48:48;100888.69;;;17.20
53512;BMP280;39392;52.832;13.816;2023-03-15T05:51:14;100893.94;;;17.22
53512;BMP280;39392;52.832;13.816;2023-03-15T05:53:41;100893.25;;;17.20
53512;BMP280;39392;52.832;13.816;2023-03-15T05:56:10;100904.94;;;17.20
53512;BMP280;39392;52.832;13.816;2023-03-15T05:58:36;100911.91;;;17.23
53512;BMP280;39392;52.832;13.816;2023-03-15T06:01:03;100919.88;;;17.24
53512;BMP280;39392;52.832;13.816;2023-03-15T06:03:30;100920.53;;;17.26
53512;BMP280;39392;52.832;13.816;2023-03-15T06:05:57;100930.38;;;17.27
53512;BMP280;39392;52.832;13.816;2023-03-15T06:08:24;100937.50;;;17.28
53512;BMP280;39392;52.832;13.816;2023-03-15T06:10:50;100935.63;;;17.29
53512;BMP280;39392;52.832;13.816;2023-03-15T06:13:16;100940.88;;;17.30
53512;BMP280;39392;52.832;13.816;2023-03-15T06:15:45;100946.16;;;17.32
53512;BMP280;39392;52.832;13.816;2023-03-15T06:18:11;100950.72;;;17.31
53512;BMP280;39392;52.832;13.816;2023-03-15T06:20:39;100954.13;;;17.33
53512;BMP280;39392;52.832;13.816;2023-03-15T06:23:06;100953.81;;;17.36
53512;BMP280;39392;52.832;13.816;2023-03-15T06:25:32;100962.59;;;17.38
53512;BMP280;39392;52.832;13.816;2023-03-15T06:27:58;100957.88;;;17.40
53512;BMP280;39392;52.832;13.816;2023-03-15T06:30:25;100963.13;;;17.42
53512;BMP280;39392;52.832;13.816;2023-03-15T06:32:54;100969.25;;;17.44
53512;BMP280;39392;52.832;13.816;2023-03-15T06:35:20;100970.78;;;17.47
53512;BMP280;39392;52.832;13.816;2023-03-15T06:37:47;100980.63;;;17.48
53512;BMP280;39392;52.832;13.816;2023-03-15T06:40:14;100975.03;;;17.49
53512;BMP280;39392;52.832;13.816;2023-03-15T06:42:40;100979.44;;;17.50
53512;BMP280;39392;52.832;13.816;2023-03-15T06:45:09;100980.28;;;17.51
53512;BMP280;39392;52.832;13.816;2023-03-15T06:47:36;100992.84;;;17.52
53512;BMP280;39392;52.832;13.816;2023-03-15T06:50:03;100996.41;;;17.52
53512;BMP280;39392;52.832;13.816;2023-03-15T06:52:29;100991.19;;;17.59
53512;BMP280;39392;52.832;13.816;2023-03-15T06:54:56;100992.25;;;17.66
53512;BMP280;39392;52.832;13.816;2023-03-15T06:57:22;100992.78;;;17.70
53512;BMP280;39392;52.832;13.816;2023-03-15T06:59:49;100995.16;;;17.73
53512;BMP280;39392;52.832;13.816;2023-03-15T07:02:16;100997.75;;;17.74
53512;BMP280;39392;52.832;13.816;2023-03-15T07:04:43;101006.53;;;17.76
53512;BMP280;39392;52.832;13.816;2023-03-15T07:07:10;101004.72;;;17.77
53512;BMP280;39392;52.832;13.816;2023-03-15T07:09:37;101009.78;;;17.80
53512;BMP280;39392;52.832;13.816;2023-03-15T07:12:03;101003.38;;;17.81
53512;BMP280;39392;52.832;13.816;2023-03-15T07:14:30;101015.91;;;17.82
53512;BMP280;39392;52.832;13.816;2023-03-15T07:16:58;101013.19;;;17.82
53512;BMP280;39392;52.832;13.816;2023-03-15T07:19:24;101012.34;;;17.81
53512;BMP280;39392;52.832;13.816;2023-03-15T07:21:51;101013.03;;;17.83
53512;BMP280;39392;52.832;13.816;2023-03-15T07:24:17;101018.97;;;17.87
53512;BMP280;39392;52.832;13.816;2023-03-15T07:26:43;101021.53;;;17.88
53512;BMP280;39392;52.832;13.816;2023-03-15T07:29:10;101021.38;;;17.90
53512;BMP280;39392;52.832;13.816;2023-03-15T07:31:36;101033.75;;;17.92
53512;BMP280;39392;52.832;13.816;2023-03-15T07:34:03;101036.84;;;17.98
53512;BMP280;39392;52.832;13.816;2023-03-15T07:36:29;101041.06;;;18.00
53512;BMP280;39392;52.832;13.816;2023-03-15T07:38:57;101039.91;;;18.03
53512;BMP280;39392;52.832;13.816;2023-03-15T07:41:23;101042.63;;;18.03
53512;BMP280;39392;52.832;13.816;2023-03-15T07:43:50;101046.00;;;18.05
53512;BMP280;39392;52.832;13.816;2023-03-15T07:46:16;101051.28;;;18.06
53512;BMP280;39392;52.832;13.816;2023-03-15T07:48:43;101054.16;;;18.05
53512;BMP280;39392;52.832;13.816;2023-03-15T07:51:09;101052.28;;;18.05
53512;BMP280;39392;52.832;13.816;2023-03-15T07:53:35;101059.25;;;18.08
53512;BMP280;39392;52.832;13.816;2023-03-15T07:56:02;101060.28;;;18.07
53512;BMP280;39392;52.832;13.816;2023-03-15T07:58:29;101062.28;;;18.05
53512;BMP280;39392;52.832;13.816;2023-03-15T08:00:56;101070.41;;;18.05
53512;BMP280;39392;52.832;13.816;2023-03-15T08:03:23;101069.56;;;18.04
53512;BMP280;39392;52.832;13.816;2023-03-15T08:05:50;101075.84;;;18.05
53512;BMP280;39392;52.832;13.816;2023-03-15T08:08:16;101072.47;;;18.03
53512;BMP280;39392;52.832;13.816;2023-03-15T08:10:43;101075.84;;;18.05
53512;BMP280;39392;52.832;13.816;2023-03-15T08:13:09;101080.59;;;18.03
53512;BMP280;39392;52.832;13.816;2023-03-15T08:15:36;101084.31;;;18.02
53512;BMP280;39392;52.832;13.816;2023-03-15T08:18:02;101088.72;;;18.03
53512;BMP280;39392;52.832;13.816;2023-03-15T08:20:31;101081.44;;;18.03
53512;BMP280;39392;52.832;13.816;2023-03-15T08:22:59;101091.44;;;18.03
53512;BMP280;39392;52.832;13.816;2023-03-15T08:25:25;101095.00;;;18.03
53512;BMP280;39392;52.832;13.816;2023-03-15T08:27:51;101098.88;;;18.01
53512;BMP280;39392;52.832;13.816;2023-03-15T08:30:18;101107.00;;;18.01
53512;BMP280;39392;52.832;13.816;2023-03-15T08:32:46;101107.19;;;17.99
53512;BMP280;39392;52.832;13.816;2023-03-15T08:35:13;101109.91;;;17.99
53512;BMP280;39392;52.832;13.816;2023-03-15T08:37:41;101119.72;;;18.00
53512;BMP280;39392;52.832;13.816;2023-03-15T08:40:13;101115.31;;;17.99
53512;BMP280;39392;52.832;13.816;2023-03-15T08:42:40;101116.00;;;18.01
53512;BMP280;39392;52.832;13.816;2023-03-15T08:45:07;101115.16;;;18.01
53512;BMP280;39392;52.832;13.816;2023-03-15T08:47:34;101126.00;;;18.01
53512;BMP280;39392;52.832;13.816;2023-03-15T08:50:04;101121.75;;;17.98
53512;BMP280;39392;52.832;13.816;2023-03-15T08:52:31;101133.44;;;17.99
53512;BMP280;39392;52.832;13.816;2023-03-15T08:54:58;101131.59;;;17.99
53512;BMP280;39392;52.832;13.816;2023-03-15T08:57:24;101132.44;;;18.00
53512;BMP280;39392;52.832;13.816;2023-03-15T08:59:51;101140.56;;;18.00
53512;BMP280;39392;52.832;13.816;2023-03-15T09:02:18;101154.97;;;18.00
53512;BMP280;39392;52.832;13.816;2023-03-15T09:04:44;101149.56;;;18.00
53512;BMP280;39392;52.832;13.816;2023-03-15T09:07:11;101162.28;;;18.00
53512;BMP280;39392;52.832;13.816;2023-03-15T09:09:37;101162.28;;;18.00
53512;BMP280;39392;52.832;13.816;2023-03-15T09:12:04;101166.66;;;18.01
53512;BMP280;39392;52.832;13.816;2023-03-15T09:14:30;101161.13;;;18.02
53512;BMP280;39392;52.832;13.816;2023-03-15T09:16:57;101173.81;;;18.02
53512;BMP280;39392;52.832;13.816;2023-03-15T09:19:23;101166.66;;;18.01
53512;BMP280;39392;52.832;13.816;2023-03-15T09:21:50;101178.38;;;18.01
53512;BMP280;39392;52.832;13.816;2023-03-15T09:24:16;101186.38;;;18.03
53512;BMP280;39392;52.832;13.816;2023-03-15T09:26:43;101184.34;;;18.05
53512;BMP280;39392;52.832;13.816;2023-03-15T09:29:09;101193.31;;;18.05
53512;BMP280;39392;52.832;13.816;2023-03-15T09:31:36;101189.63;;;18.06
53512;BMP280;39392;52.832;13.816;2023-03-15T09:34:02;101192.16;;;18.08
53512;BMP280;39392;52.832;13.816;2023-03-15T09:36:28;101190.13;;;18.10
53512;BMP280;39392;52.832;13.816;2023-03-15T09:38:55;101190.81;;;18.12
53512;BMP280;39392;52.832;13.816;2023-03-15T09:41:35;101197.81;;;18.14
53512;BMP280;39392;52.832;13.816;2023-03-15T09:44:08;101193.38;;;18.13
53512;BMP280;39392;52.832;13.816;2023-03-15T09:49:32;101206.09;;;18.13
53512;BMP280;39392;52.832;13.816;2023-03-15T09:52:01;101208.13;;;18.11
53512;BMP280;39392;52.832;13.816;2023-03-15T09:54:36;101212.38;;;18.13
53512;BMP280;39392;52.832;13.816;2023-03-15T09:57:08;101213.22;;;18.14
53512;BMP280;39392;52.832;13.816;2023-03-15T09:59:40;101223.06;;;18.15
53512;BMP280;39392;52.832;13.816;2023-03-15T10:02:20;101225.63;;;18.16
53512;BMP280;39392;52.832;13.816;2023-03-15T10:04:48;101232.75;;;18.17
53512;BMP280;39392;52.832;13.816;2023-03-15T10:07:17;101231.03;;;18.16
53512;BMP280;39392;52.832;13.816;2023-03-15T10:09:43;101231.88;;;18.17
53512;BMP280;39392;52.832;13.816;2023-03-15T10:12:11;101235.31;;;18.19
53512;BMP280;39392;52.832;13.816;2023-03-15T10:20:00;101245.38;;;18.27
53512;BMP280;39392;52.832;13.816;2023-03-15T10:22:31;101252.22;;;18.39
53512;BMP280;39392;52.832;13.816;2023-03-15T10:29:54;101263.06;;;18.65
53512;BMP280;39392;52.832;13.816;2023-03-15T10:32:22;101260.91;;;18.69
53512;BMP280;39392;52.832;13.816;2023-03-15T10:34:51;101254.00;;;18.74
53512;BMP280;39392;52.832;13.816;2023-03-15T10:37:18;101258.22;;;18.77
53512;BMP280;39392;52.832;13.816;2023-03-15T10:39:45;101254.16;;;18.81
53512;BMP280;39392;52.832;13.816;2023-03-15T10:47:40;101258.66;;;18.90
53512;BMP280;39392;52.832;13.816;2023-03-15T10:52:53;101249.16;;;18.94
53512;BMP280;39392;52.832;13.816;2023-03-15T10:55:27;101255.28;;;18.96
53512;BMP280;39392;52.832;13.816;2023-03-15T10:57:56;101262.25;;;18.99
53512;BMP280;39392;52.832;13.816;2023-03-15T11:00:26;101254.78;;;19.01
53512;BMP280;39392;52.832;13.816;2023-03-15T11:03:17;101260.91;;;19.03
53512;BMP280;39392;52.832;13.816;2023-03-15T11:05:48;101258.88;;;19.05
53512;BMP280;39392;52.832;13.816;2023-03-15T11:08:16;101272.13;;;19.08
53512;BMP280;39392;52.832;13.816;2023-03-15T11:10:44;101261.09;;;19.09
53512;BMP280;39392;52.832;13.816;2023-03-15T11:13:21;101265.34;;;19.12
53512;BMP280;39392;52.832;13.816;2023-03-15T11:15:52;101272.47;;;19.13
53512;BMP280;39392;52.832;13.816;2023-03-15T11:18:24;101272.16;;;19.16
53512;BMP280;39392;52.832;13.816;2023-03-15T11:20:51;101268.25;;;19.19
53512;BMP280;39392;52.832;13.816;2023-03-15T11:23:25;101259.94;;;19.20
53512;BMP280;39392;52.832;13.816;2023-03-15T11:25:52;101268.78;;;19.22
53512;BMP280;39392;52.832;13.816;2023-03-15T11:28:19;101260.47;;;19.24
53512;BMP280;39392;52.832;13.816;2023-03-15T11:30:48;101257.56;;;19.25
53512;BMP280;39392;52.832;13.816;2023-03-15T11:33:24;101271.00;;;19.27
53512;BMP280;39392;52.832;13.816;2023-03-15T11:35:53;101276.28;;;19.28
53512;BMP280;39392;52.832;13.816;2023-03-15T11:40:58;101273.06;;;19.33
53512;BMP280;39392;52.832;13.816;2023-03-15T11:43:27;101268.31;;;19.35
53512;BMP280;39392;52.832;13.816;2023-03-15T11:45:55;101273.72;;;19.35
53512;BMP280;39392;52.832;13.816;2023-03-15T11:51:31;101279.69;;;19.38
53512;BMP280;39392;52.832;13.816;2023-03-15T11:56:28;101283.97;;;19.41
53512;BMP280;39392;52.832;13.816;2023-03-15T11:59:11;101275.63;;;19.42
53512;BMP280;39392;52.832;13.816;2023-03-15T12:01:45;101278.19;;;19.44
53512;BMP280;39392;52.832;13.816;2023-03-15T12:06:43;101260.88;;;19.45
53512;BMP280;39392;52.832;13.816;2023-03-15T12:12:01;101265.97;;;19.48
53512;BMP280;39392;52.832;13.816;2023-03-15T12:14:29;101260.38;;;19.50
53512;BMP280;39392;52.832;13.816;2023-03-15T12:19:42;101257.81;;;19.48
53512;BMP280;39392;52.832;13.816;2023-03-15T12:22:15;101264.63;;;19.52
53512;BMP280;39392;52.832;13.816;2023-03-15T12:24:43;101261.91;;;19.52
53512;BMP280;39392;52.832;13.816;2023-03-15T12:27:14;101265.47;;;19.53
53512;BMP280;39392;52.832;13.816;2023-03-15T12:29:43;101270.72;;;19.54
53512;BMP280;39392;52.832;13.816;2023-03-15T12:32:11;101273.44;;;19.54
53512;BMP280;39392;52.832;13.816;2023-03-15T12:34:49;101278.72;;;19.56
53512;BMP280;39392;52.832;13.816;2023-03-15T12:37:24;101284.16;;;19.56
53512;BMP280;39392;52.832;13.816;2023-03-15T12:39:59;101288.59;;;19.57
53512;BMP280;39392;52.832;13.816;2023-03-15T12:53:20;101298.44;;;19.58
53512;BMP280;39392;52.832;13.816;2023-03-15T12:55:48;101289.25;;;19.59
53512;BMP280;39392;52.832;13.816;2023-03-15T12:58:29;101290.09;;;19.59
53512;BMP280;39392;52.832;13.816;2023-03-15T13:00:58;101283.81;;;19.59
53512;BMP280;39392;52.832;13.816;2023-03-15T13:03:27;101289.09;;;19.60
53512;BMP280;39392;52.832;13.816;2023-03-15T13:11:28;101288.13;;;19.61
53512;BMP280;39392;52.832;13.816;2023-03-15T13:19:20;101290.97;;;19.60
53512;BMP280;39392;52.832;13.816;2023-03-15T13:27:02;101297.97;;;19.62
53512;BMP280;39392;52.832;13.816;2023-03-15T13:29:31;101290.97;;;19.60
53512;BMP280;39392;52.832;13.816;2023-03-15T13:31:59;101292.53;;;19.62
53512;BMP280;39392;52.832;13.816;2023-03-15T13:34:26;101295.06;;;19.64
53512;BMP280;39392;52.832;13.816;2023-03-15T13:36:56;101300.50;;;19.64
53512;BMP280;39392;52.832;13.816;2023-03-15T13:39:24;101292.22;;;19.65
53512;BMP280;39392;52.832;13.816;2023-03-15T13:42:01;101300.38;;;19.65
53512;BMP280;39392;52.832;13.816;2023-03-15T13:44:28;101304.09;;;19.64
53512;BMP280;39392;52.832;13.816;2023-03-15T13:46:57;101313.78;;;19.67
53512;BMP280;39392;52.832;13.816;2023-03-15T13:49:24;101314.63;;;19.68
53512;BMP280;39392;52.832;13.816;2023-03-15T13:51:54;101341.81;;;19.68
53512;BMP280;39392;52.832;13.816;2023-03-15T13:54:24;101357.28;;;19.67
53512;BMP280;39392;52.832;13.816;2023-03-15T13:57:10;101364.44;;;19.68
53512;BMP280;39392;52.832;13.816;2023-03-15T13:59:44;101372.59;;;19.68
53512;BMP280;39392;52.832;13.816;2023-03-15T14:02:16;101374.31;;;19.69
53512;BMP280;39392;52.832;13.816;2023-03-15T14:04:46;101375.31;;;19.68
53512;BMP280;39392;52.832;13.816;2023-03-15T14:09:46;101365.28;;;19.69
53512;BMP280;39392;52.832;13.816;2023-03-15T14:12:19;101367.16;;;19.68
53512;BMP280;39392;52.832;13.816;2023-03-15T14:14:50;101363.44;;;19.69
53512;BMP280;39392;52.832;13.816;2023-03-15T14:17:34;101355.28;;;19.69
53512;BMP280;39392;52.832;13.816;2023-03-15T14:20:05;101350.69;;;19.70
53512;BMP280;39392;52.832;13.816;2023-03-15T14:22:34;101352.38;;;19.71
53512;BMP280;39392;52.832;13.816;2023-03-15T14:25:02;101351.53;;;19.70
53512;BMP280;39392;52.832;13.816;2023-03-15T14:27:29;101355.94;;;19.71
53512;BMP280;39392;52.832;13.816;2023-03-15T14:29:56;101348.63;;;19.72
53512;BMP280;39392;52.832;13.816;2023-03-15T14:32:25;101348.63;;;19.72
53512;BMP280;39392;52.832;13.816;2023-03-15T14:35:00;101346.75;;;19.72
53512;BMP280;39392;52.832;13.816;2023-03-15T14:37:29;101349.47;;;19.72
53512;BMP280;39392;52.832;13.816;2023-03-15T14:40:03;101347.63;;;19.73
53512;BMP280;39392;52.832;13.816;2023-03-15T14:42:30;101349.47;;;19.72
53512;BMP280;39392;52.832;13.816;2023-03-15T14:44:56;101346.75;;;19.72
53512;BMP280;39392;52.832;13.816;2023-03-15T14:47:23;101340.47;;;19.72
53512;BMP280;39392;52.832;13.816;2023-03-15T14:49:49;101346.75;;;19.72
53512;BMP280;39392;52.832;13.816;2023-03-15T14:52:16;101341.31;;;19.72
53512;BMP280;39392;52.832;13.816;2023-03-15T14:54:45;101336.72;;;19.73
53512;BMP280;39392;52.832;13.816;2023-03-15T14:57:11;101335.75;;;19.74
53512;BMP280;39392;52.832;13.816;2023-03-15T14:59:38;101335.75;;;19.74